Time;durP1;ratioP1;P1;durP2;ratioP2;P2;SDS_P1;SDS_P2;PMS_P1;PMS_P2;Temp;Humidity;BMP_temperature;BMP_pressure;BME280_temperature;BME280_humidity;BME280_pressure;Samples;Min_cycle;Max_cycle;Signal;HPM_P1;HPM_P2
2021/05/06 00:32:06;;;;;;;3.07;1.80;;;5.60;99.90;;;;;;5005131;23;20508;-95
2021/05/06 00:34:35;;;;;;;2.20;1.70;;;5.50;99.90;;;;;;4955943;28;20496;-96
2021/05/06 00:37:20;;;;;;;1.90;1.80;;;5.50;99.90;;;;;;4998337;28;20998;-96
2021/05/06 00:39:55;;;;;;;2.10;2.00;;;5.50;99.90;;;;;;4964655;28;20451;-96
2021/05/06 00:42:32;;;;;;;3.57;1.97;;;5.50;99.90;;;;;;4969776;28;20466;-96
2021/05/06 01:07:03;;;;;;;2.67;2.20;;;5.20;99.90;;;;;;5272201;23;20894;-95
2021/05/06 01:10:27;;;;;;;2.37;2.17;;;5.10;99.90;;;;;;5111444;23;20566;-96
2021/05/06 01:15:04;;;;;;;2.77;2.57;;;5.10;99.90;;;;;;4978165;28;20456;-95
2021/05/06 01:17:30;;;;;;;4.77;2.67;;;5.10;99.90;;;;;;4972729;28;20454;-92
2021/05/06 01:30:33;;;;;;;2.67;2.47;;;5.10;99.90;;;;;;4977288;28;20626;-95
2021/05/06 01:35:57;;;;;;;3.17;2.87;;;5.10;99.90;;;;;;4978050;28;20491;-93
2021/05/06 01:46:42;;;;;;;3.90;2.67;;;5.20;99.90;;;;;;4975485;28;21251;-95
2021/05/06 01:57:28;;;;;;;2.60;2.40;;;5.20;99.90;;;;;;4960284;28;20471;-96
2021/05/06 01:59:48;;;;;;;2.87;2.67;;;5.30;99.90;;;;;;4973348;28;20483;-95
2021/05/06 02:02:13;;;;;;;3.23;2.63;;;5.30;99.90;;;;;;4960383;28;20460;-94
2021/05/06 02:04:41;;;;;;;4.13;3.30;;;5.30;99.90;;;;;;4979530;28;20629;-94
2021/05/06 02:07:09;;;;;;;3.33;2.90;;;5.20;99.90;;;;;;4962377;28;20205;-95
2021/05/06 02:09:36;;;;;;;2.67;2.47;;;5.30;99.90;;;;;;4961648;28;20517;-94
2021/05/06 02:12:04;;;;;;;2.70;2.50;;;5.30;99.90;;;;;;4964321;28;20538;-96
2021/05/06 02:14:30;;;;;;;3.53;2.70;;;5.30;99.90;;;;;;4993770;28;20448;-96
2021/05/06 02:16:56;;;;;;;2.77;2.57;;;5.30;99.90;;;;;;4956851;28;20551;-96
2021/05/06 02:19:29;;;;;;;2.53;2.33;;;5.30;99.90;;;;;;4964766;28;20464;-96
2021/05/06 02:21:56;;;;;;;2.70;2.30;;;5.40;99.90;;;;;;4960902;28;20188;-96
2021/05/06 02:24:23;;;;;;;3.00;2.77;;;5.40;99.90;;;;;;4963320;28;20461;-96
2021/05/06 02:26:48;;;;;;;2.73;2.53;;;5.40;99.90;;;;;;4961091;28;20467;-96
2021/05/06 02:29:14;;;;;;;2.23;2.07;;;5.40;99.90;;;;;;4965809;28;20466;-96
2021/05/06 02:31:40;;;;;;;5.30;2.73;;;5.40;99.90;;;;;;4993209;28;20770;-96
2021/05/06 02:34:05;;;;;;;3.60;2.43;;;5.40;99.90;;;;;;4978747;28;20939;-96
2021/05/06 02:36:31;;;;;;;3.57;2.47;;;5.40;99.90;;;;;;4971706;28;20197;-96
2021/05/06 02:38:58;;;;;;;7.60;2.83;;;5.40;99.90;;;;;;4962360;28;20237;-96
2021/05/06 02:41:23;;;;;;;2.73;2.43;;;5.40;99.90;;;;;;4981289;28;20604;-96
2021/05/06 02:43:49;;;;;;;2.37;2.17;;;5.40;99.90;;;;;;4965900;28;20461;-94
2021/05/06 02:46:14;;;;;;;3.10;2.43;;;5.40;99.90;;;;;;4954891;28;20651;-95
2021/05/06 02:48:47;;;;;;;4.37;2.73;;;5.40;99.90;;;;;;4969267;28;20198;-96
2021/05/06 02:51:13;;;;;;;2.77;2.30;;;5.40;99.90;;;;;;4979912;28;20651;-96
2021/05/06 02:53:47;;;;;;;2.80;2.37;;;5.30;99.90;;;;;;4952359;28;20452;-95
2021/05/06 02:59:16;;;;;;;6.00;2.87;;;5.40;99.90;;;;;;4994498;28;20451;-96
2021/05/06 03:05:03;;;;;;;5.20;2.23;;;5.50;99.90;;;;;;5005257;28;20464;-96
2021/05/06 03:07:31;;;;;;;3.20;2.47;;;5.50;99.90;;;;;;4977943;28;20529;-96
2021/05/06 03:10:05;;;;;;;3.73;3.03;;;5.60;99.90;;;;;;4972262;28;20448;-95
2021/05/06 03:23:34;;;;;;;3.50;2.63;;;5.60;99.90;;;;;;5704750;23;20444;-92
2021/05/06 04:27:23;;;;;;;2.83;2.03;;;5.60;99.90;;;;;;4985756;28;20487;-93
2021/05/06 04:37:52;;;;;;;3.17;2.80;;;5.00;99.90;;;;;;4986062;28;20464;-96
2021/05/06 04:59:29;;;;;;;2.40;2.20;;;5.50;99.90;;;;;;4985681;28;20443;-93
2021/05/06 05:33:37;;;;;;;2.60;2.37;;;6.70;99.90;;;;;;4986102;28;21141;-94
2021/05/06 05:36:17;;;;;;;2.23;2.03;;;6.70;99.90;;;;;;4992302;28;20623;-96
2021/05/06 05:54:46;;;;;;;2.03;1.90;;;6.70;99.90;;;;;;4984272;28;20463;-94
2021/05/06 05:57:17;;;;;;;3.10;2.80;;;6.80;99.90;;;;;;4979859;28;20540;-94
2021/05/06 05:59:43;;;;;;;3.10;2.20;;;6.70;99.90;;;;;;4984468;28;20450;-93
2021/05/06 06:02:09;;;;;;;3.50;2.70;;;6.80;99.90;;;;;;4981494;28;20979;-94
2021/05/06 06:07:09;;;;;;;2.47;1.93;;;7.00;99.90;;;;;;4981193;28;20329;-92
2021/05/06 06:09:43;;;;;;;2.40;2.20;;;6.90;99.90;;;;;;4987186;28;20502;-96
2021/05/06 06:12:09;;;;;;;5.67;2.80;;;7.10;99.90;;;;;;4977611;28;20223;-95
2021/05/06 06:14:47;;;;;;;4.57;3.23;;;7.10;99.90;;;;;;4971557;28;20449;-93
2021/05/06 06:17:13;;;;;;;4.73;2.27;;;7.10;99.90;;;;;;4973100;28;20465;-90
2021/05/06 06:19:40;;;;;;;3.13;2.60;;;7.10;99.90;;;;;;4954411;28;20957;-90
2021/05/06 06:22:09;;;;;;;2.60;2.17;;;7.10;99.90;;;;;;4964933;28;20201;-88
2021/05/06 06:24:35;;;;;;;7.73;2.90;;;7.10;99.90;;;;;;4955835;28;20447;-89
2021/05/06 06:27:01;;;;;;;2.80;2.50;;;7.20;99.90;;;;;;4983379;28;20460;-88
2021/05/06 06:29:32;;;;;;;6.63;2.60;;;7.20;99.90;;;;;;4962771;28;20213;-89
2021/05/06 06:31:59;;;;;;;3.13;2.60;;;7.20;99.90;;;;;;4980207;28;20789;-88
2021/05/06 06:34:25;;;;;;;2.93;2.43;;;7.30;99.90;;;;;;4967393;28;20451;-88
2021/05/06 06:36:51;;;;;;;3.63;2.90;;;7.40;99.90;;;;;;4985093;28;20445;-87
2021/05/06 06:39:17;;;;;;;3.13;2.20;;;7.40;99.90;;;;;;4981528;28;20182;-89
2021/05/06 06:41:44;;;;;;;2.70;2.50;;;7.50;99.90;;;;;;4976440;28;20194;-90
2021/05/06 06:44:23;;;;;;;5.80;2.90;;;7.60;99.90;;;;;;5001403;28;20206;-96
2021/05/06 06:47:00;;;;;;;3.87;2.70;;;7.70;99.90;;;;;;4963699;28;21077;-92
2021/05/06 06:49:27;;;;;;;8.93;3.40;;;7.80;99.90;;;;;;4979915;28;20472;-93
2021/05/06 06:51:53;;;;;;;7.70;3.10;;;7.90;99.90;;;;;;4964422;28;20473;-96
2021/05/06 06:54:18;;;;;;;3.13;2.47;;;7.90;99.90;;;;;;4972511;28;20456;-93
2021/05/06 06:56:44;;;;;;;2.70;2.47;;;7.80;99.90;;;;;;4983735;28;20207;-94
2021/05/06 06:59:10;;;;;;;5.10;2.90;;;7.90;99.90;;;;;;4971970;28;20214;-94
2021/05/06 07:01:36;;;;;;;3.10;2.60;;;8.00;99.90;;;;;;4964178;28;20257;-87
2021/05/06 07:04:02;;;;;;;2.90;2.43;;;8.20;99.90;;;;;;4975217;28;20593;-86
2021/05/06 07:06:37;;;;;;;6.07;2.60;;;8.40;99.90;;;;;;4967229;28;20441;-87
2021/05/06 07:09:04;;;;;;;2.57;2.33;;;8.50;99.90;;;;;;4966506;28;20440;-91
2021/05/06 07:11:30;;;;;;;7.90;2.27;;;8.60;99.90;;;;;;4966956;28;21060;-91
2021/05/06 07:13:56;;;;;;;2.83;2.50;;;8.70;99.90;;;;;;4958253;28;20459;-89
2021/05/06 07:16:37;;;;;;;7.80;2.93;;;8.70;99.90;;;;;;4960389;28;20745;-91
2021/05/06 07:19:03;;;;;;;3.87;2.90;;;8.80;99.90;;;;;;4977676;28;20297;-91
2021/05/06 07:22:05;;;;;;;4.20;2.17;;;8.90;99.90;;;;;;4976905;28;20527;-91
2021/05/06 07:24:32;;;;;;;45.60;29.97;;;8.80;99.90;;;;;;4964571;28;20453;-93
2021/05/06 07:26:59;;;;;;;3.87;2.40;;;8.70;99.90;;;;;;4962275;28;20446;-92
2021/05/06 07:29:26;;;;;;;5.03;2.27;;;8.70;99.90;;;;;;4958519;28;20488;-89
2021/05/06 07:31:51;;;;;;;3.80;2.43;;;8.70;99.90;;;;;;4959380;28;20480;-91
2021/05/06 07:34:17;;;;;;;8.57;2.50;;;8.70;99.90;;;;;;4939697;28;20947;-91
2021/05/06 07:36:43;;;;;;;4.27;2.63;;;8.80;99.90;;;;;;4973451;28;20190;-92
2021/05/06 07:39:09;;;;;;;3.73;2.23;;;9.00;99.90;;;;;;4975490;28;20182;-93
2021/05/06 07:41:37;;;;;;;2.83;2.10;;;9.10;99.90;;;;;;4960976;28;20270;-90
2021/05/06 07:44:03;;;;;;;3.70;2.00;;;9.20;99.90;;;;;;4960608;28;20550;-91
2021/05/06 07:46:28;;;;;;;2.80;2.53;;;9.30;99.90;;;;;;4972095;28;20516;-94
2021/05/06 07:49:03;;;;;;;2.30;2.10;;;9.70;99.90;;;;;;4969051;28;20798;-93
2021/05/06 07:51:29;;;;;;;3.33;2.30;;;9.60;99.90;;;;;;4975599;28;20228;-89
2021/05/06 07:53:56;;;;;;;2.43;1.97;;;9.90;99.90;;;;;;4968191;28;20459;-89
2021/05/06 07:56:22;;;;;;;5.23;2.10;;;10.20;99.90;;;;;;4974648;28;20439;-91
2021/05/06 07:58:48;;;;;;;3.10;2.10;;;10.50;99.90;;;;;;4951480;28;20452;-90
2021/05/06 08:01:14;;;;;;;2.53;1.70;;;10.50;99.90;;;;;;4961142;28;20678;-90
2021/05/06 08:03:40;;;;;;;3.63;2.23;;;10.20;99.90;;;;;;4950985;28;20696;-94
2021/05/06 08:06:06;;;;;;;5.53;2.27;;;10.00;99.90;;;;;;4942880;28;21663;-90
2021/05/06 08:08:32;;;;;;;4.70;2.30;;;9.90;99.90;;;;;;4958188;28;20288;-93
2021/05/06 08:10:58;;;;;;;7.80;1.87;;;9.90;99.90;;;;;;4975589;28;21034;-95
2021/05/06 08:13:26;;;;;;;4.50;2.70;;;9.90;99.90;;;;;;4971517;28;20220;-89
2021/05/06 08:15:54;;;;;;;3.43;1.77;;;10.00;99.90;;;;;;4950588;28;20861;-95
2021/05/06 08:18:21;;;;;;;4.10;2.40;;;10.10;99.90;;;;;;4957950;28;20636;-96
2021/05/06 08:20:47;;;;;;;5.97;2.53;;;10.20;99.90;;;;;;4982419;28;20466;-92
2021/05/06 08:23:13;;;;;;;6.23;3.43;;;10.10;99.90;;;;;;4959510;28;20454;-92
2021/05/06 08:25:40;;;;;;;4.97;2.27;;;10.20;99.90;;;;;;4972483;28;20236;-92
2021/05/06 08:28:07;;;;;;;4.90;3.33;;;10.20;99.90;;;;;;4966705;28;20454;-92
2021/05/06 08:30:34;;;;;;;3.93;3.53;;;10.40;99.90;;;;;;4977278;28;20874;-89
2021/05/06 08:33:01;;;;;;;6.73;2.90;;;10.40;99.90;;;;;;4962202;28;21101;-88
2021/05/06 08:35:26;;;;;;;7.13;2.73;;;10.40;99.90;;;;;;4981760;28;20452;-88
2021/05/06 08:37:52;;;;;;;3.53;2.23;;;10.40;99.90;;;;;;4963598;28;24228;-87
2021/05/06 08:40:19;;;;;;;9.67;2.80;;;10.40;99.90;;;;;;4981401;28;20189;-89
2021/05/06 08:42:45;;;;;;;3.07;2.40;;;10.30;99.90;;;;;;4957827;28;20807;-88
2021/05/06 08:45:11;;;;;;;3.90;2.10;;;10.20;99.90;;;;;;4959543;28;20645;-91
2021/05/06 08:47:37;;;;;;;4.93;2.67;;;10.20;99.90;;;;;;4955613;28;20497;-90
2021/05/06 08:50:04;;;;;;;10.93;2.70;;;10.10;99.90;;;;;;4983132;28;20456;-89
2021/05/06 08:52:29;;;;;;;7.27;2.67;;;10.00;99.90;;;;;;4967024;28;20496;-90
2021/05/06 08:54:57;;;;;;;2.10;1.93;;;9.90;99.90;;;;;;4955277;28;20930;-93
2021/05/06 08:57:25;;;;;;;2.70;2.00;;;10.00;99.90;;;;;;4961683;28;20225;-89
2021/05/06 08:59:51;;;;;;;11.10;3.03;;;10.10;99.90;;;;;;4973945;28;20446;-89
2021/05/06 09:02:20;;;;;;;2.77;2.00;;;10.10;99.90;;;;;;4960102;28;20464;-89
2021/05/06 09:04:46;;;;;;;6.10;2.20;;;10.00;99.90;;;;;;4962305;28;20468;-89
2021/05/06 09:07:12;;;;;;;2.47;2.20;;;9.90;99.90;;;;;;4985965;28;20830;-89
2021/05/06 09:09:51;;;;;;;4.90;2.80;;;9.90;99.90;;;;;;4984064;28;20472;-89
2021/05/06 09:12:32;;;;;;;5.30;2.20;;;10.00;99.90;;;;;;4959240;28;20492;-90
2021/05/06 09:15:18;;;;;;;3.37;2.20;;;10.00;99.90;;;;;;4963342;28;20773;-91
2021/05/06 09:17:44;;;;;;;3.83;2.80;;;10.10;99.90;;;;;;4971296;28;20887;-89
2021/05/06 09:20:19;;;;;;;7.43;3.23;;;10.20;99.90;;;;;;4975286;28;20444;-88
2021/05/06 09:22:45;;;;;;;4.87;2.70;;;10.10;99.90;;;;;;4955925;28;20251;-89
2021/05/06 09:25:26;;;;;;;4.73;2.50;;;9.90;99.90;;;;;;4978278;28;20846;-89
2021/05/06 09:28:14;;;;;;;4.40;2.60;;;9.80;99.90;;;;;;4996861;28;20488;-90
2021/05/06 09:30:51;;;;;;;7.07;3.50;;;9.80;99.90;;;;;;4958905;28;20517;-89
2021/05/06 09:33:18;;;;;;;5.53;2.93;;;9.70;99.90;;;;;;4975480;28;20810;-89
2021/05/06 09:35:45;;;;;;;5.57;2.60;;;9.60;99.90;;;;;;4973063;28;21105;-87
2021/05/06 09:38:32;;;;;;;5.37;2.30;;;9.60;99.90;;;;;;4963030;28;20539;-87
2021/05/06 09:41:01;;;;;;;1.73;1.63;;;9.60;99.90;;;;;;4982213;28;20437;-88
2021/05/06 09:43:29;;;;;;;3.07;1.90;;;9.60;99.90;;;;;;4963541;28;20448;-88
2021/05/06 09:45:56;;;;;;;2.63;1.70;;;9.60;99.90;;;;;;4964236;28;20507;-90
2021/05/06 09:48:23;;;;;;;3.20;1.90;;;9.40;99.90;;;;;;4966263;28;20448;-90
2021/05/06 09:50:52;;;;;;;5.93;1.93;;;9.30;99.90;;;;;;4978860;28;21171;-89
2021/05/06 09:53:21;;;;;;;2.80;1.40;;;9.20;99.90;;;;;;4980504;28;20476;-89
2021/05/06 09:55:48;;;;;;;3.73;1.57;;;9.20;99.90;;;;;;4956604;28;21002;-89
2021/05/06 09:58:23;;;;;;;3.33;2.10;;;9.20;99.90;;;;;;4946455;28;20520;-91
2021/05/06 10:00:51;;;;;;;2.93;2.00;;;9.20;99.90;;;;;;4979651;28;20780;-87
2021/05/06 10:03:33;;;;;;;3.80;2.03;;;9.10;99.90;;;;;;4958494;28;20512;-87
2021/05/06 10:06:30;;;;;;;3.80;2.00;;;9.10;99.90;;;;;;4970192;28;20441;-88
2021/05/06 10:09:02;;;;;;;2.43;1.80;;;9.00;99.90;;;;;;4961672;28;20822;-89
2021/05/06 10:11:28;;;;;;;2.93;1.67;;;9.00;99.90;;;;;;4973703;28;20448;-89
2021/05/06 10:13:57;;;;;;;2.27;1.80;;;8.90;99.90;;;;;;4975329;28;20482;-88
2021/05/06 10:16:26;;;;;;;3.80;1.97;;;8.90;99.90;;;;;;4965179;28;20563;-88
2021/05/06 10:18:52;;;;;;;2.33;1.80;;;8.90;99.90;;;;;;4958534;28;20476;-88
2021/05/06 10:21:39;;;;;;;2.70;1.90;;;8.90;99.90;;;;;;4971226;28;20459;-87
2021/05/06 10:24:05;;;;;;;1.70;1.60;;;8.90;99.90;;;;;;4955920;28;20448;-88
2021/05/06 10:26:34;;;;;;;1.60;1.50;;;8.90;99.90;;;;;;4972059;28;20464;-89
2021/05/06 10:28:59;;;;;;;1.50;1.40;;;9.00;99.90;;;;;;4974171;28;20843;-88
2021/05/06 10:31:26;;;;;;;1.60;1.10;;;9.00;99.90;;;;;;4956927;28;20705;-88
2021/05/06 10:33:54;;;;;;;2.77;1.47;;;9.00;99.90;;;;;;4975933;28;20194;-87
2021/05/06 10:36:22;;;;;;;4.30;1.33;;;9.10;99.90;;;;;;4963715;28;20460;-89
2021/05/06 10:38:48;;;;;;;1.43;1.30;;;9.10;99.90;;;;;;4958925;28;20527;-88
2021/05/06 10:41:30;;;;;;;1.60;1.50;;;9.20;99.90;;;;;;4974869;28;20547;-88
2021/05/06 10:43:58;;;;;;;1.73;1.00;;;9.40;99.90;;;;;;4960959;28;20786;-87
2021/05/06 10:46:46;;;;;;;1.27;1.13;;;9.50;99.90;;;;;;4960681;28;20488;-86
2021/05/06 10:49:14;;;;;;;1.00;0.90;;;9.60;99.90;;;;;;4959829;28;20443;-89
2021/05/06 10:51:42;;;;;;;1.20;1.00;;;9.70;99.90;;;;;;4973562;28;20490;-88
2021/05/06 10:54:27;;;;;;;5.40;4.93;;;9.60;99.90;;;;;;4995399;28;20550;-89
2021/05/06 10:56:57;;;;;;;7.60;3.10;;;9.70;99.90;;;;;;4974388;28;20547;-87
2021/05/06 10:59:24;;;;;;;2.13;1.10;;;9.80;99.90;;;;;;4957175;28;20477;-88
2021/05/06 11:01:51;;;;;;;1.70;1.40;;;10.00;99.90;;;;;;4959356;28;20528;-90
2021/05/06 11:04:17;;;;;;;0.90;0.90;;;10.00;99.90;;;;;;4965786;28;20539;-89
2021/05/06 11:06:44;;;;;;;1.77;1.63;;;10.30;99.90;;;;;;4956111;28;20823;-89
2021/05/06 11:09:36;;;;;;;2.10;1.40;;;10.50;99.90;;;;;;4958957;28;20432;-93
2021/05/06 11:12:19;;;;;;;1.10;1.10;;;10.60;99.90;;;;;;4959480;28;20544;-90
2021/05/06 11:15:00;;;;;;;1.70;1.60;;;10.60;99.90;;;;;;4974063;28;20463;-92
2021/05/06 11:17:42;;;;;;;2.80;1.20;;;10.70;99.90;;;;;;4974122;28;20444;-89
2021/05/06 11:20:11;;;;;;;2.07;1.50;;;10.40;99.90;;;;;;4971076;28;20498;-91
2021/05/06 11:22:43;;;;;;;3.67;1.77;;;10.30;99.90;;;;;;4974959;28;20524;-91
2021/05/06 11:27:57;;;;;;;2.03;1.80;;;10.80;99.90;;;;;;4976487;28;20444;-92
2021/05/06 11:30:36;;;;;;;1.17;1.13;;;10.80;99.90;;;;;;4958840;28;20801;-92
2021/05/06 11:33:20;;;;;;;2.10;1.50;;;10.80;99.90;;;;;;4957371;28;20693;-91
2021/05/06 11:36:09;;;;;;;2.43;2.23;;;10.70;99.90;;;;;;4973627;28;20824;-91
2021/05/06 11:38:41;;;;;;;2.90;1.80;;;10.70;99.90;;;;;;4973225;28;20871;-89
2021/05/06 11:41:30;;;;;;;2.43;1.20;;;10.70;99.90;;;;;;4975364;28;20557;-92
2021/05/06 11:44:04;;;;;;;1.60;1.50;;;10.60;99.90;;;;;;4959027;28;20814;-91
2021/05/06 11:46:30;;;;;;;2.83;1.60;;;10.40;99.90;;;;;;4958510;28;21638;-90
2021/05/06 11:49:06;;;;;;;2.27;1.33;;;10.50;99.90;;;;;;4974091;28;20591;-91
2021/05/06 11:51:36;;;;;;;1.40;1.30;;;10.60;99.90;;;;;;4975881;28;20435;-92
2021/05/06 11:54:08;;;;;;;3.37;1.60;;;10.60;99.90;;;;;;4959458;28;20561;-91
2021/05/06 11:56:43;;;;;;;3.80;1.90;;;10.60;99.90;;;;;;4958187;28;20526;-90
2021/05/06 11:59:15;;;;;;;4.27;1.50;;;10.60;99.90;;;;;;4967076;28;20463;-89
2021/05/06 12:01:41;;;;;;;2.73;1.40;;;10.60;99.90;;;;;;4957017;28;20819;-92
2021/05/06 12:04:20;;;;;;;1.80;1.70;;;10.40;99.90;;;;;;4954173;28;20450;-92
2021/05/06 12:06:45;;;;;;;1.97;1.77;;;10.30;99.90;;;;;;4960436;28;20846;-94
2021/05/06 12:09:20;;;;;;;2.40;1.60;;;10.20;99.90;;;;;;4958706;28;20473;-93
2021/05/06 12:11:46;;;;;;;2.97;1.93;;;10.20;99.90;;;;;;4972977;28;20833;-89
2021/05/06 12:14:14;;;;;;;1.90;1.67;;;10.20;99.90;;;;;;4976957;28;20498;-92
2021/05/06 12:16:40;;;;;;;4.10;2.10;;;10.10;99.90;;;;;;4974180;28;20443;-91
2021/05/06 12:19:11;;;;;;;2.60;2.20;;;10.10;99.90;;;;;;4976761;28;20464;-93
2021/05/06 12:21:47;;;;;;;11.03;2.20;;;10.00;99.90;;;;;;4954918;28;20457;-91
2021/05/06 12:24:32;;;;;;;5.23;1.87;;;10.00;99.90;;;;;;4975960;28;20462;-88
2021/05/06 12:27:25;;;;;;;1.57;1.47;;;10.10;99.90;;;;;;4972672;28;20562;-89
2021/05/06 12:30:00;;;;;;;1.67;1.53;;;10.10;99.90;;;;;;4972548;28;20497;-91
2021/05/06 12:32:29;;;;;;;2.80;1.90;;;10.10;99.90;;;;;;4974016;28;20477;-90
2021/05/06 12:34:56;;;;;;;1.67;1.57;;;10.20;99.90;;;;;;4974642;28;20481;-89
2021/05/06 12:37:27;;;;;;;3.90;2.17;;;10.20;99.90;;;;;;4971752;28;21020;-89
2021/05/06 12:39:53;;;;;;;2.70;2.13;;;10.30;99.90;;;;;;4955958;28;20439;-91
2021/05/06 12:42:36;;;;;;;3.80;2.10;;;10.30;99.90;;;;;;4976246;28;20456;-88
2021/05/06 12:45:05;;;;;;;2.40;1.90;;;10.20;99.90;;;;;;4950932;28;20462;-88
2021/05/06 12:47:40;;;;;;;3.30;2.10;;;10.00;99.90;;;;;;4956462;28;20443;-89
2021/05/06 12:50:15;;;;;;;3.23;2.27;;;10.00;99.90;;;;;;4952379;28;20459;-90
2021/05/06 12:52:46;;;;;;;2.67;2.47;;;9.90;99.90;;;;;;4954405;28;20948;-89
2021/05/06 12:55:20;;;;;;;5.60;2.53;;;10.00;99.90;;;;;;4956711;28;20442;-89
2021/05/06 12:58:12;;;;;;;3.13;2.53;;;9.90;99.90;;;;;;4964881;28;20590;-91
2021/05/06 13:00:40;;;;;;;3.10;2.30;;;9.90;99.90;;;;;;4955528;28;20452;-88
2021/05/06 13:03:08;;;;;;;2.63;2.43;;;9.80;99.90;;;;;;4952188;28;20678;-87
2021/05/06 13:05:43;;;;;;;3.43;2.80;;;9.80;99.90;;;;;;4968092;28;20502;-91
2021/05/06 13:08:08;;;;;;;2.33;2.13;;;9.80;99.90;;;;;;4971082;28;20537;-87
2021/05/06 13:10:42;;;;;;;4.97;2.67;;;9.90;99.90;;;;;;4959786;28;20468;-89
2021/05/06 13:13:10;;;;;;;2.67;2.47;;;9.80;99.90;;;;;;4940998;28;20257;-88
2021/05/06 13:15:56;;;;;;;4.13;2.60;;;9.80;99.90;;;;;;4953811;28;20950;-87
2021/05/06 13:18:22;;;;;;;3.60;2.63;;;9.70;99.90;;;;;;4945482;28;20541;-87
2021/05/06 13:20:54;;;;;;;3.90;3.03;;;9.70;99.90;;;;;;4971583;28;20447;-87
2021/05/06 13:23:35;;;;;;;6.00;4.10;;;9.70;99.90;;;;;;4970810;28;20208;-87
2021/05/06 13:26:06;;;;;;;4.93;3.80;;;9.60;99.90;;;;;;4970176;28;20704;-89
2021/05/06 13:28:32;;;;;;;6.63;5.90;;;9.50;99.90;;;;;;4948875;28;20914;-87
2021/05/06 13:31:21;;;;;;;5.53;4.30;;;9.40;99.90;;;;;;4947885;28;20443;-88
2021/05/06 13:34:12;;;;;;;7.30;3.90;;;9.30;99.90;;;;;;4966464;28;20505;-86
2021/05/06 13:36:38;;;;;;;3.03;2.77;;;9.30;99.90;;;;;;4971841;28;20456;-87
2021/05/06 13:39:08;;;;;;;3.73;3.43;;;9.10;99.90;;;;;;4969127;28;20830;-88
2021/05/06 13:41:37;;;;;;;3.90;3.50;;;9.10;99.90;;;;;;4988920;28;20701;-86
2021/05/06 13:44:05;;;;;;;2.90;2.70;;;9.00;99.90;;;;;;4971381;28;20550;-87
2021/05/06 13:46:33;;;;;;;2.80;2.60;;;9.00;99.90;;;;;;4974278;28;20435;-88
2021/05/06 13:48:59;;;;;;;3.63;3.30;;;9.00;99.90;;;;;;4953639;28;20693;-89
2021/05/06 13:51:26;;;;;;;3.27;2.97;;;9.00;99.90;;;;;;4974677;28;20868;-86
2021/05/06 13:53:55;;;;;;;4.10;3.50;;;9.00;99.90;;;;;;4974673;28;20451;-87
2021/05/06 13:56:22;;;;;;;5.50;3.63;;;8.90;99.90;;;;;;4957204;28;20448;-84
2021/05/06 13:58:51;;;;;;;5.00;3.53;;;9.00;99.90;;;;;;4970338;28;20531;-87
2021/05/06 14:01:19;;;;;;;5.93;3.57;;;9.00;99.90;;;;;;4954622;28;20811;-86
2021/05/06 14:03:45;;;;;;;4.40;3.33;;;9.10;99.90;;;;;;4955514;28;20449;-84
2021/05/06 14:06:13;;;;;;;4.47;3.17;;;9.10;99.90;;;;;;4955440;28;20450;-85
2021/05/06 14:08:39;;;;;;;5.10;3.33;;;9.10;99.90;;;;;;4953232;28;20483;-83
2021/05/06 14:11:05;;;;;;;3.30;3.00;;;9.10;99.90;;;;;;4955822;28;20570;-85
2021/05/06 14:13:33;;;;;;;2.73;2.53;;;9.00;99.90;;;;;;4969974;28;20576;-85
2021/05/06 14:16:00;;;;;;;3.00;2.80;;;9.00;99.90;;;;;;4938135;28;20958;-86
2021/05/06 14:18:26;;;;;;;4.10;2.87;;;9.00;99.90;;;;;;4953159;28;20449;-85
2021/05/06 14:20:58;;;;;;;4.10;3.40;;;9.10;99.90;;;;;;4955186;28;20445;-86
2021/05/06 14:23:24;;;;;;;4.17;3.50;;;9.20;99.90;;;;;;4955100;28;20448;-85
2021/05/06 14:25:50;;;;;;;4.97;3.77;;;9.20;99.90;;;;;;4950135;28;20470;-86
2021/05/06 14:28:18;;;;;;;3.67;3.10;;;9.10;99.90;;;;;;4969995;28;20196;-85
2021/05/06 14:30:44;;;;;;;2.67;2.50;;;9.10;99.90;;;;;;4970953;28;20247;-85
2021/05/06 14:33:10;;;;;;;5.57;5.07;;;9.00;99.90;;;;;;4953624;28;21284;-89
2021/05/06 14:35:35;;;;;;;5.03;3.90;;;9.00;99.90;;;;;;4963783;28;20197;-88
2021/05/06 14:38:07;;;;;;;4.83;3.93;;;9.00;99.90;;;;;;4950580;28;20779;-88
2021/05/06 14:40:33;;;;;;;7.40;4.50;;;9.00;99.90;;;;;;4947333;28;20194;-88
2021/05/06 14:43:00;;;;;;;1.60;1.50;;;9.00;99.90;;;;;;4952438;28;20475;-87
2021/05/06 14:45:25;;;;;;;3.07;2.73;;;8.90;99.90;;;;;;4954817;28;20232;-87
2021/05/06 14:47:52;;;;;;;3.70;3.07;;;8.80;99.90;;;;;;4953540;28;20853;-89
2021/05/06 14:50:18;;;;;;;3.30;2.80;;;8.80;99.90;;;;;;4967361;28;20228;-86
2021/05/06 14:52:43;;;;;;;1.70;1.60;;;8.80;99.90;;;;;;4953333;28;20586;-86
2021/05/06 14:55:11;;;;;;;3.07;2.77;;;8.80;99.90;;;;;;4954155;28;20193;-86
2021/05/06 14:57:40;;;;;;;2.63;2.43;;;8.90;99.90;;;;;;4960579;28;20877;-86
2021/05/06 15:00:08;;;;;;;2.63;2.33;;;8.90;99.90;;;;;;4946449;28;20445;-86
2021/05/06 15:02:35;;;;;;;1.70;1.60;;;9.00;99.90;;;;;;4945479;28;20449;-89
2021/05/06 15:05:00;;;;;;;3.83;3.37;;;9.10;99.90;;;;;;4962169;28;20438;-87
2021/05/06 15:07:26;;;;;;;1.63;1.53;;;9.20;99.90;;;;;;4944237;28;20456;-87
2021/05/06 15:09:52;;;;;;;1.63;1.53;;;9.30;99.90;;;;;;4928179;28;20183;-87
2021/05/06 15:12:18;;;;;;;1.00;1.00;;;9.30;99.90;;;;;;4939648;28;20224;-86
2021/05/06 15:14:43;;;;;;;2.20;1.60;;;9.50;99.90;;;;;;4968560;28;20548;-87
2021/05/06 15:17:09;;;;;;;1.60;0.70;;;9.40;99.90;;;;;;4968392;28;20449;-86
2021/05/06 15:19:35;;;;;;;2.13;1.60;;;9.40;99.90;;;;;;4966500;28;20746;-88
2021/05/06 15:22:01;;;;;;;2.20;1.47;;;9.40;99.90;;;;;;4946963;28;20704;-86
2021/05/06 15:24:27;;;;;;;1.37;1.27;;;9.30;99.90;;;;;;4971312;28;20194;-85
2021/05/06 15:26:52;;;;;;;0.83;0.83;;;9.30;99.90;;;;;;4970291;28;20476;-86
2021/05/06 15:29:18;;;;;;;1.50;1.40;;;9.30;99.90;;;;;;4954382;28;20919;-86
2021/05/06 15:31:44;;;;;;;1.47;0.90;;;9.30;99.90;;;;;;4946594;28;20294;-86
2021/05/06 15:34:10;;;;;;;2.47;1.50;;;9.10;99.90;;;;;;4949090;28;20191;-87
2021/05/06 15:36:37;;;;;;;2.03;1.70;;;9.10;99.90;;;;;;4949439;28;20186;-86
2021/05/06 15:39:06;;;;;;;1.50;1.40;;;9.10;99.90;;;;;;4963700;28;20526;-88
2021/05/06 15:41:32;;;;;;;1.80;1.67;;;9.10;99.90;;;;;;4970382;28;20440;-87
2021/05/06 15:43:58;;;;;;;2.17;1.47;;;9.10;99.90;;;;;;4945701;28;20484;-88
2021/05/06 15:46:24;;;;;;;2.43;1.27;;;9.00;99.90;;;;;;4956627;28;20950;-89
2021/05/06 15:48:50;;;;;;;1.53;1.40;;;8.90;99.90;;;;;;4961649;28;20870;-87
2021/05/06 15:51:15;;;;;;;1.53;1.43;;;9.10;99.90;;;;;;4963929;28;20212;-86
2021/05/06 15:53:43;;;;;;;1.77;1.50;;;9.10;99.90;;;;;;4955053;28;20515;-89
2021/05/06 15:56:12;;;;;;;1.40;1.30;;;9.10;99.90;;;;;;4966457;28;20260;-87
2021/05/06 15:58:39;;;;;;;1.30;1.30;;;9.10;99.90;;;;;;4953356;28;21298;-87
2021/05/06 16:01:05;;;;;;;2.17;1.90;;;9.10;99.90;;;;;;4960697;28;20551;-89
2021/05/06 16:03:34;;;;;;;2.07;1.83;;;9.00;99.90;;;;;;4942678;28;20577;-88
2021/05/06 16:06:00;;;;;;;1.90;1.80;;;9.00;99.90;;;;;;4948424;28;20441;-87
2021/05/06 16:08:26;;;;;;;3.13;2.40;;;9.00;99.90;;;;;;4949692;28;21881;-86
2021/05/06 16:10:52;;;;;;;5.00;3.33;;;8.90;99.90;;;;;;4946205;28;20313;-87
2021/05/06 16:13:19;;;;;;;3.70;2.50;;;8.90;99.90;;;;;;4948655;28;20272;-85
2021/05/06 16:15:48;;;;;;;2.93;2.50;;;9.00;99.90;;;;;;4949083;28;20452;-87
2021/05/06 16:18:14;;;;;;;4.03;3.63;;;9.00;99.90;;;;;;4949494;28;20769;-86
2021/05/06 16:20:40;;;;;;;2.80;2.60;;;9.00;99.90;;;;;;4966468;28;20540;-85
2021/05/06 16:23:10;;;;;;;4.70;2.53;;;9.00;99.90;;;;;;4948691;28;20181;-86
2021/05/06 16:25:36;;;;;;;1.90;1.80;;;8.90;99.90;;;;;;4969426;28;20524;-85
2021/05/06 16:28:07;;;;;;;2.10;1.90;;;8.90;99.90;;;;;;4954852;28;20452;-85
2021/05/06 16:30:33;;;;;;;2.37;2.17;;;9.00;99.90;;;;;;4947683;28;20875;-87
2021/05/06 16:33:02;;;;;;;2.30;2.10;;;9.00;99.90;;;;;;4954581;28;21137;-86
2021/05/06 16:35:33;;;;;;;2.07;1.60;;;9.00;99.90;;;;;;4979204;28;20467;-86
2021/05/06 16:38:07;;;;;;;3.20;2.20;;;9.60;99.90;;;;;;4952187;28;20523;-85
2021/05/06 16:45:44;;;;;;;3.53;1.80;;;13.30;99.90;;;;;;4970827;28;20821;-85
2021/05/06 16:48:12;;;;;;;2.67;1.80;;;12.10;99.90;;;;;;4953533;28;20815;-84
2021/05/06 16:50:40;;;;;;;2.20;1.80;;;10.70;99.90;;;;;;4945924;28;20438;-84
2021/05/06 16:53:05;;;;;;;1.73;1.63;;;10.00;99.90;;;;;;4953110;28;20477;-85
2021/05/06 16:55:34;;;;;;;7.83;4.90;;;9.70;99.90;;;;;;4944730;28;20449;-85
2021/05/06 16:57:59;;;;;;;12.60;7.47;;;9.50;99.90;;;;;;4946169;28;20742;-85
2021/05/06 17:00:25;;;;;;;3.33;2.17;;;9.40;99.90;;;;;;4962269;28;20446;-86
2021/05/06 17:02:52;;;;;;;4.20;2.10;;;9.40;99.90;;;;;;4933926;28;20214;-86
2021/05/06 17:05:18;;;;;;;1.80;1.70;;;9.40;99.90;;;;;;4958567;28;20451;-84
2021/05/06 17:07:44;;;;;;;2.80;1.70;;;9.40;99.90;;;;;;4955573;28;20439;-88
2021/05/06 17:10:15;;;;;;;1.67;1.50;;;9.40;99.90;;;;;;4955634;28;20476;-89
2021/05/06 17:12:41;;;;;;;1.87;1.77;;;9.30;99.90;;;;;;4954776;28;21018;-87
2021/05/06 17:15:08;;;;;;;2.77;2.60;;;9.20;99.90;;;;;;4949862;28;20455;-87
2021/05/06 17:17:34;;;;;;;2.40;2.20;;;9.10;99.90;;;;;;4959653;28;20182;-87